Kezdőlap
METAR-TAF:

METAR-TAF

Repülőterek :

Rzeszów, Lengyelország

földrajzi szélesség: 50-06N, földrajzi hosszúság: 022-03E, magasság: 200 m

Jelenlegi meteorológiai megfigyelések

A jelentés 33 perccel ezelõtt készült, 21:00 UTC
Kelet-északkeleti szél 6 kt
Hőmérséklet 19°C
Páratartalom 68%
Légköri nyomás 1022 hPa
Látótávolság 10 km, vagy több
felhőtlen 1500 m magasságban, és nincs gomolyfelhõ

METAR: EPRZ 272100Z 07006KT CAVOK 19/13 Q1022

Idő: 23:33 (21:33 UTC)

Előrejelzés

A jelentés 4 órával és 3 perccel ezelõtt készült, 17:30 UTC
Az előrejelzés 27-én 18 óra UTC és 28-én 18 óra UTC között érvényes
Keleti szél 8 kt
Látótávolság 10 km, vagy több
felhőtlen 1500 m magasságban, és nincs gomolyfelhõ

TAF: EPRZ 271730Z 2718/2818 09008KT CAVOK

Meteorológiai megfigyelések és előrejelzések több, mint 4000 repülőtéren (METAR és TAF jelentéseket).

A térképen piros és sárga pontok jelzik az elérhető meteorológiai állomásokat.

Mozgassa az egeret a pont fölött, hogy megjelenjen az állomás neve.

Azután kattintson az időjárási megfigyelések és előrejelzések megtekintéséhez.

A térkép megváltoztatása: kattintson a fekete keresztel jelölt zöld gombra ráközelítéshez, a vonallal jelölt zöld gombra távolításhoz, vagy a zöld nyilakra a szomszédos térképek eléréséhez.


METAR-TAF: